Terminal Aerodrome Forecast
Issued by NWS Anchorage, AK

Home | Current Version | Previous Version | Text Only | Print | Product List | Glossary On
Versions: 1 2 3 4 5 6 7 8 9 10 11 12 13 14 15 16 17 18 19 20 21 22 23 24 25 26 27 28 29 30 31 32 33 34 35 36 37 38 39 40 41 42 43 44 45 46 47
000
FTAK31 PANC 051333 AAB
TAFANC
TAF AMD
PANC 051333Z 0514/0618 20004KT 4SM BR SCT007 BKN015 OVC030
      TEMPO 0514/0517 2SM BR BKN007 OVC015
     FM051700 VRB04KT P6SM VCFG SCT010 OVC030
      TEMPO 0517/0519 3SM BR BKN010
     FM052200 VRB03KT P6SM VCSH SCT022 BKN035 OVC060
     FM060500 VRB03KT P6SM BKN022 BKN035=

USA.gov is the U.S. government's official web portal to all federal, state and local government web resources and services.